Time,TemperatureF,DewpointF,PressureIn,WindDirection,WindDirectionDegrees,WindSpeedMPH,WindSpeedGustMPH,Humidity,HourlyPrecipIn,Conditions,Clouds,dailyrainin,SoftwareType,DateUTC
2013-08-07 00:01:00,78.0,74.0,29.93,West,261,0.0,0.0,87,0.00,,,0.02,,2013-08-07 04:01:00,
2013-08-07 00:11:00,78.0,74.0,29.93,West,261,0.0,0.0,87,0.00,,,0.02,,2013-08-07 04:11:00,
2013-08-07 00:21:00,78.0,74.0,29.93,West,261,0.0,0.0,87,0.00,,,0.02,,2013-08-07 04:21:00,
2013-08-07 00:33:00,77.0,73.0,29.93,West,261,0.0,0.0,87,0.00,,,0.02,,2013-08-07 04:33:00,
2013-08-07 00:43:00,77.0,73.0,29.93,West,261,0.0,0.0,87,0.00,,,0.02,,2013-08-07 04:43:00,
2013-08-07 00:52:00,77.0,73.0,29.93,West,261,0.0,0.0,87,0.00,,,0.02,,2013-08-07 04:52:00,
2013-08-07 01:02:00,77.0,73.0,29.92,West,261,0.0,0.0,87,0.00,,,0.02,,2013-08-07 05:02:00,
2013-08-07 01:11:00,76.0,72.0,29.93,West,261,0.0,0.0,87,0.00,,,0.02,,2013-08-07 05:11:00,
2013-08-07 01:22:00,76.0,72.0,29.93,West,261,0.0,0.0,87,0.00,,,0.02,,2013-08-07 05:22:00,
2013-08-07 01:32:00,76.0,72.0,29.93,West,261,0.0,0.0,87,0.00,,,0.02,,2013-08-07 05:32:00,
2013-08-07 01:43:00,76.0,72.0,29.92,West,261,0.0,0.0,86,0.00,,,0.02,,2013-08-07 05:43:00,
2013-08-07 01:52:00,76.0,72.0,29.92,West,261,0.0,0.0,86,0.00,,,0.02,,2013-08-07 05:52:00,
2013-08-07 02:02:00,76.0,72.0,29.92,West,261,0.0,0.0,86,0.00,,,0.02,,2013-08-07 06:02:00,
2013-08-07 02:11:00,76.0,72.0,29.92,West,261,0.0,0.0,87,0.00,,,0.02,,2013-08-07 06:11:00,
2013-08-07 02:32:00,76.0,72.0,29.92,West,261,0.0,0.0,86,0.00,,,0.02,,2013-08-07 06:32:00,
2013-08-07 02:43:00,75.0,71.0,29.91,West,261,0.0,0.0,86,0.00,,,0.02,,2013-08-07 06:43:00,
2013-08-07 02:52:00,75.0,71.0,29.91,West,261,0.0,0.0,86,0.00,,,0.02,,2013-08-07 06:52:00,
2013-08-07 03:01:00,75.0,71.0,29.91,West,261,0.0,0.0,86,0.00,,,0.02,,2013-08-07 07:01:00,
2013-08-07 03:12:00,75.0,71.0,29.91,West,261,0.0,0.0,86,0.00,,,0.02,,2013-08-07 07:12:00,
2013-08-07 03:22:00,75.0,71.0,29.91,West,261,0.0,0.0,86,0.00,,,0.02,,2013-08-07 07:22:00,
2013-08-07 03:33:00,75.0,71.0,29.89,West,261,0.0,0.0,86,0.00,,,0.02,,2013-08-07 07:33:00,
2013-08-07 03:43:00,75.0,71.0,29.89,West,261,0.0,0.0,86,0.00,,,0.02,,2013-08-07 07:43:00,
2013-08-07 03:53:00,75.0,71.0,29.89,West,261,0.0,0.0,86,0.00,,,0.02,,2013-08-07 07:53:00,
2013-08-07 04:02:00,75.0,71.0,29.89,West,261,0.0,0.0,86,0.00,,,0.02,,2013-08-07 08:02:00,
2013-08-07 04:11:00,75.0,71.0,29.89,West,261,0.0,0.0,86,0.00,,,0.02,,2013-08-07 08:11:00,
2013-08-07 04:32:00,74.0,70.0,29.89,West,261,0.0,0.0,86,0.00,,,0.02,,2013-08-07 08:32:00,
2013-08-07 04:44:00,74.0,70.0,29.89,West,261,0.0,0.0,86,0.00,,,0.02,,2013-08-07 08:44:00,
2013-08-07 04:53:00,74.0,70.0,29.88,West,261,0.0,0.0,86,0.00,,,0.02,,2013-08-07 08:53:00,
2013-08-07 05:02:00,74.0,70.0,29.88,West,261,0.0,0.0,86,0.00,,,0.02,,2013-08-07 09:02:00,
2013-08-07 05:12:00,74.0,70.0,29.88,West,261,0.0,0.0,86,0.00,,,0.02,,2013-08-07 09:12:00,
2013-08-07 05:22:00,74.0,70.0,29.88,West,261,0.0,0.0,86,0.00,,,0.02,,2013-08-07 09:22:00,
2013-08-07 05:32:00,74.0,70.0,29.88,West,261,0.0,0.0,86,0.00,,,0.02,,2013-08-07 09:32:00,
2013-08-07 05:43:00,74.0,70.0,29.88,West,261,0.0,0.0,86,0.00,,,0.02,,2013-08-07 09:43:00,
2013-08-07 05:54:00,73.0,69.0,29.88,West,261,0.0,0.0,86,0.01,,,0.03,,2013-08-07 09:54:00,
2013-08-07 06:01:00,73.0,69.0,29.89,West,261,0.0,0.0,86,0.01,,,0.03,,2013-08-07 10:01:00,
2013-08-07 06:11:00,73.0,69.0,29.89,West,261,0.0,0.0,86,0.01,,,0.03,,2013-08-07 10:11:00,
2013-08-07 06:22:00,73.0,69.0,29.89,West,261,0.0,0.0,86,0.01,,,0.03,,2013-08-07 10:22:00,
2013-08-07 06:32:00,73.0,69.0,29.89,West,261,0.0,0.0,86,0.01,,,0.03,,2013-08-07 10:32:00,
2013-08-07 06:43:00,73.0,69.0,29.90,West,261,0.0,0.0,86,0.01,,,0.03,,2013-08-07 10:43:00,
2013-08-07 06:52:00,73.0,69.0,29.91,West,261,0.0,0.0,86,0.00,,,0.03,,2013-08-07 10:52:00,
2013-08-07 07:01:00,73.0,69.0,29.91,West,261,0.0,0.0,86,0.00,,,0.03,,2013-08-07 11:01:00,
2013-08-07 07:11:00,73.0,69.0,29.91,West,261,0.0,0.0,86,0.00,,,0.03,,2013-08-07 11:11:00,
2013-08-07 07:22:00,73.0,69.0,29.91,West,261,0.0,0.0,86,0.00,,,0.03,,2013-08-07 11:22:00,
2013-08-07 07:32:00,73.0,69.0,29.91,West,261,0.0,0.0,86,0.00,,,0.03,,2013-08-07 11:32:00,
2013-08-07 07:42:00,74.0,70.0,29.91,West,261,0.0,0.0,87,0.00,,,0.03,,2013-08-07 11:42:00,
2013-08-07 07:43:00,73.0,69.0,29.91,West,261,0.0,0.0,86,0.00,,,0.03,,2013-08-07 11:43:00,
2013-08-07 07:52:00,74.0,70.0,29.91,West,261,0.0,0.0,86,0.00,,,0.03,,2013-08-07 11:52:00,
2013-08-07 08:02:00,74.0,70.0,29.91,West,261,0.0,0.0,87,0.00,,,0.03,,2013-08-07 12:02:00,
2013-08-07 08:11:00,74.0,70.0,29.91,West,261,0.0,0.0,87,0.00,,,0.03,,2013-08-07 12:11:00,
2013-08-07 08:22:00,74.0,70.0,29.91,West,261,0.0,0.0,87,0.00,,,0.03,,2013-08-07 12:22:00,
2013-08-07 08:33:00,74.0,70.0,29.91,West,261,0.0,0.0,87,0.00,,,0.03,,2013-08-07 12:33:00,
2013-08-07 08:52:00,78.0,73.0,29.93,ENE,68,0.0,0.0,86,0.00,,,0.03,,2013-08-07 12:52:00,
2013-08-07 09:12:00,80.0,75.0,29.93,SSE,159,0.0,1.0,85,0.00,,,0.03,,2013-08-07 13:12:00,
2013-08-07 09:32:00,81.0,76.0,29.93,ESE,114,0.0,1.0,84,0.00,,,0.03,,2013-08-07 13:32:00,
2013-08-07 09:44:00,81.0,76.0,29.93,ESE,114,0.0,1.0,84,0.00,,,0.03,,2013-08-07 13:44:00,
2013-08-07 09:53:00,81.0,76.0,29.93,ESE,114,0.0,1.0,84,0.00,,,0.03,,2013-08-07 13:53:00,
2013-08-07 10:02:00,84.0,78.0,29.93,South,173,0.0,4.0,82,0.00,,,0.03,,2013-08-07 14:02:00,
2013-08-07 10:12:00,85.0,79.0,29.93,East,80,0.0,6.0,82,0.00,,,0.03,,2013-08-07 14:12:00,
2013-08-07 10:22:00,85.0,79.0,29.93,East,80,0.0,6.0,82,0.00,,,0.03,,2013-08-07 14:22:00,
2013-08-07 10:33:00,85.0,79.0,29.93,East,80,0.0,6.0,82,0.00,,,0.03,,2013-08-07 14:33:00,
2013-08-07 10:43:00,87.0,80.0,29.94,SE,133,2.0,5.0,79,0.00,,,0.03,,2013-08-07 14:43:00,
2013-08-07 10:52:00,87.0,80.0,29.94,SE,133,2.0,5.0,79,0.00,,,0.03,,2013-08-07 14:52:00,
2013-08-07 11:02:00,87.0,80.0,29.94,SE,133,2.0,5.0,79,0.00,,,0.03,,2013-08-07 15:02:00,
2013-08-07 11:13:00,88.0,79.0,29.94,ENE,78,0.0,5.0,76,0.00,,,0.03,,2013-08-07 15:13:00,
2013-08-07 11:22:00,88.0,79.0,29.94,ENE,78,0.0,5.0,76,0.00,,,0.03,,2013-08-07 15:22:00,
2013-08-07 11:33:00,89.0,79.0,29.94,SSE,162,0.0,4.0,72,0.00,,,0.03,,2013-08-07 15:33:00,
2013-08-07 11:43:00,89.0,79.0,29.94,SSE,162,0.0,4.0,72,0.00,,,0.03,,2013-08-07 15:43:00,
2013-08-07 11:53:00,89.0,79.0,29.94,SSE,162,0.0,4.0,72,0.00,,,0.03,,2013-08-07 15:53:00,
2013-08-07 12:02:00,90.0,79.0,29.93,SSE,155,0.0,4.0,70,0.00,,,0.03,,2013-08-07 16:02:00,
2013-08-07 12:22:00,89.0,77.0,29.93,NNE,28,0.0,5.0,69,0.00,,,0.03,,2013-08-07 16:22:00,
2013-08-07 12:33:00,91.0,79.0,29.93,South,171,0.0,5.0,68,0.00,,,0.03,,2013-08-07 16:33:00,
2013-08-07 12:43:00,91.0,79.0,29.93,South,171,0.0,5.0,68,0.00,,,0.03,,2013-08-07 16:43:00,
2013-08-07 12:53:00,91.0,79.0,29.93,South,171,0.0,5.0,68,0.00,,,0.03,,2013-08-07 16:53:00,
2013-08-07 13:02:00,91.0,79.0,29.93,South,171,0.0,5.0,68,0.00,,,0.03,,2013-08-07 17:02:00,
2013-08-07 13:11:00,92.0,78.0,29.92,SSW,210,0.0,4.0,64,0.00,,,0.03,,2013-08-07 17:11:00,
2013-08-07 13:33:00,91.0,77.0,29.92,SSE,156,0.0,3.0,64,0.00,,,0.01,,2013-08-07 17:33:00,
2013-08-07 13:43:00,90.0,77.0,29.91,ESE,121,0.0,4.0,66,0.00,,,0.01,,2013-08-07 17:43:00,
2013-08-07 13:52:00,90.0,77.0,29.91,ESE,121,0.0,0.0,66,0.00,,,0.01,,2013-08-07 17:52:00,
2013-08-07 14:02:00,91.0,78.0,29.91,SW,236,0.0,4.0,67,0.00,,,0.01,,2013-08-07 18:02:00,
2013-08-07 14:11:00,90.0,78.0,29.90,SW,223,0.0,4.0,67,0.00,,,0.01,,2013-08-07 18:11:00,
2013-08-07 14:32:00,90.0,78.0,29.90,SW,223,0.0,1.0,68,0.00,,,0.01,,2013-08-07 18:32:00,
2013-08-07 14:43:00,91.0,79.0,29.91,South,185,0.0,4.0,69,0.00,,,0.01,,2013-08-07 18:43:00,
2013-08-07 14:52:00,91.0,79.0,29.91,South,185,0.0,4.0,69,0.00,,,0.01,,2013-08-07 18:52:00,
2013-08-07 15:01:00,90.0,78.0,29.91,WNW,283,2.0,4.0,69,0.00,,,0.01,,2013-08-07 19:01:00,
2013-08-07 15:11:00,90.0,78.0,29.91,WNW,283,2.0,4.0,69,0.00,,,0.01,,2013-08-07 19:11:00,
2013-08-07 15:22:00,90.0,80.0,29.90,WSW,248,3.0,5.0,73,0.00,,,0.01,,2013-08-07 19:22:00,
2013-08-07 15:32:00,88.0,79.0,29.90,WSW,243,1.0,10.0,74,0.00,,,0.01,,2013-08-07 19:32:00,
2013-08-07 15:44:00,86.0,78.0,29.90,NW,313,0.0,10.0,77,0.00,,,0.01,,2013-08-07 19:44:00,
2013-08-07 16:11:00,79.0,74.0,29.91,WNW,294,0.0,7.0,85,0.01,,,0.02,,2013-08-07 20:11:00,
2013-08-07 16:22:00,78.0,73.0,29.90,West,273,0.0,2.0,86,0.04,,,0.05,,2013-08-07 20:22:00,
2013-08-07 16:32:00,78.0,73.0,29.90,West,273,0.0,2.0,86,0.04,,,0.05,,2013-08-07 20:32:00,
2013-08-07 16:43:00,78.0,73.0,29.90,West,273,0.0,2.0,86,0.04,,,0.05,,2013-08-07 20:43:00,
2013-08-07 16:52:00,78.0,73.0,29.89,West,262,0.0,0.0,86,0.04,,,0.05,,2013-08-07 20:52:00,
2013-08-07 17:01:00,78.0,73.0,29.89,West,262,0.0,0.0,86,0.04,,,0.05,,2013-08-07 21:01:00,
2013-08-07 17:11:00,79.0,74.0,29.91,SE,132,0.0,3.0,86,0.04,,,0.05,,2013-08-07 21:11:00,
2013-08-07 17:22:00,79.0,74.0,29.91,SE,132,0.0,3.0,86,0.04,,,0.05,,2013-08-07 21:22:00,
2013-08-07 17:43:00,80.0,75.0,29.92,SE,132,3.0,5.0,84,0.01,,,0.05,,2013-08-07 21:43:00,
2013-08-07 17:52:00,79.0,74.0,29.91,SE,132,0.0,1.0,85,0.00,,,0.05,,2013-08-07 21:52:00,
2013-08-07 18:01:00,78.0,73.0,29.91,SE,132,0.0,1.0,85,0.00,,,0.05,,2013-08-07 22:01:00,
2013-08-07 18:12:00,78.0,73.0,29.91,SE,132,0.0,1.0,85,0.00,,,0.05,,2013-08-07 22:12:00,
2013-08-07 18:22:00,78.0,73.0,29.91,SE,132,0.0,1.0,85,0.00,,,0.05,,2013-08-07 22:22:00,
2013-08-07 18:32:00,78.0,73.0,29.91,SE,132,0.0,1.0,85,0.00,,,0.05,,2013-08-07 22:32:00,
2013-08-07 18:43:00,78.0,73.0,29.91,SE,132,0.0,0.0,86,0.00,,,0.05,,2013-08-07 22:43:00,
2013-08-07 18:52:00,78.0,73.0,29.91,SE,132,0.0,0.0,86,0.00,,,0.05,,2013-08-07 22:52:00,
2013-08-07 19:01:00,78.0,73.0,29.91,SE,132,0.0,0.0,86,0.00,,,0.05,,2013-08-07 23:01:00,
2013-08-07 19:11:00,78.0,73.0,29.91,SE,132,0.0,0.0,86,0.00,,,0.05,,2013-08-07 23:11:00,
2013-08-07 19:22:00,78.0,73.0,29.91,ENE,59,0.0,0.0,86,0.00,,,0.05,,2013-08-07 23:22:00,
2013-08-07 19:32:00,78.0,73.0,29.91,ENE,59,0.0,0.0,86,0.00,,,0.05,,2013-08-07 23:32:00,
2013-08-07 19:43:00,78.0,73.0,29.91,ENE,59,0.0,0.0,86,0.00,,,0.05,,2013-08-07 23:43:00,
2013-08-07 19:52:00,78.0,73.0,29.91,ENE,59,0.0,0.0,86,0.00,,,0.05,,2013-08-07 23:52:00,
2013-08-07 20:01:00,78.0,73.0,29.89,ENE,59,0.0,0.0,86,0.00,,,0.05,,2013-08-08 00:01:00,
2013-08-07 20:11:00,78.0,73.0,29.90,ENE,59,0.0,0.0,86,0.00,,,0.05,,2013-08-08 00:11:00,
2013-08-07 20:22:00,78.0,73.0,29.90,ENE,59,0.0,0.0,86,0.00,,,0.05,,2013-08-08 00:22:00,
2013-08-07 20:32:00,78.0,73.0,29.90,ENE,59,0.0,0.0,86,0.00,,,0.05,,2013-08-08 00:32:00,
2013-08-07 20:42:00,78.0,73.0,29.90,ENE,59,0.0,0.0,86,0.00,,,0.05,,2013-08-08 00:42:00,
2013-08-07 20:52:00,78.0,73.0,29.92,ENE,59,0.0,0.0,86,0.00,,,0.05,,2013-08-08 00:52:00,
2013-08-07 21:02:00,78.0,73.0,29.92,ENE,59,0.0,0.0,86,0.00,,,0.05,,2013-08-08 01:02:00,
2013-08-07 21:11:00,78.0,73.0,29.92,ENE,59,0.0,0.0,86,0.00,,,0.05,,2013-08-08 01:11:00,
2013-08-07 21:22:00,78.0,73.0,29.92,ENE,59,0.0,0.0,86,0.00,,,0.05,,2013-08-08 01:22:00,
2013-08-07 21:32:00,77.0,72.0,29.91,ENE,59,0.0,0.0,86,0.00,,,0.05,,2013-08-08 01:32:00,
2013-08-07 21:43:00,77.0,72.0,29.92,ENE,59,0.0,0.0,86,0.00,,,0.05,,2013-08-08 01:43:00,
2013-08-07 21:52:00,77.0,72.0,29.92,ENE,59,0.0,0.0,86,0.00,,,0.05,,2013-08-08 01:52:00,
2013-08-07 22:02:00,77.0,72.0,29.92,ENE,59,0.0,0.0,86,0.00,,,0.05,,2013-08-08 02:02:00,
2013-08-07 22:11:00,77.0,72.0,29.92,ENE,59,0.0,0.0,86,0.00,,,0.05,,2013-08-08 02:11:00,
2013-08-07 22:22:00,77.0,72.0,29.92,ENE,59,0.0,0.0,86,0.00,,,0.05,,2013-08-08 02:22:00,
2013-08-07 22:32:00,76.0,72.0,29.94,ENE,59,0.0,0.0,86,0.00,,,0.05,,2013-08-08 02:32:00,
2013-08-07 22:43:00,76.0,72.0,29.94,ENE,59,0.0,0.0,86,0.00,,,0.05,,2013-08-08 02:43:00,
2013-08-07 22:52:00,76.0,72.0,29.94,ENE,59,0.0,0.0,86,0.00,,,0.05,,2013-08-08 02:52:00,
2013-08-07 23:12:00,76.0,72.0,29.94,ENE,59,0.0,0.0,86,0.00,,,0.05,,2013-08-08 03:12:00,
2013-08-07 23:22:00,76.0,72.0,29.94,ENE,59,0.0,0.0,86,0.00,,,0.05,,2013-08-08 03:22:00,
2013-08-07 23:32:00,76.0,72.0,29.94,ENE,59,0.0,0.0,86,0.00,,,0.05,,2013-08-08 03:32:00,
2013-08-07 23:43:00,76.0,72.0,29.94,ENE,59,0.0,0.0,86,0.00,,,0.05,,2013-08-08 03:43:00,
2013-08-07 23:52:00,76.0,72.0,29.94,ENE,59,0.0,0.0,86,0.00,,,0.05,,2013-08-08 03:52:00,